Time;durP1;ratioP1;P1;durP2;ratioP2;P2;SDS_P1;SDS_P2;PMS_P1;PMS_P2;Temp;Humidity;BMP_temperature;BMP_pressure;BME280_temperature;BME280_humidity;BME280_pressure;Samples;Min_cycle;Max_cycle;Signal;HPM_P1;HPM_P2
2023/08/18 00:03:27;;;;;;;16.67;12.45;;;;;;;;;;8106367;29;20066;-91
2023/08/18 00:07:30;;;;;;;15.63;12.35;;;;;;;;;;8106445;29;20430;-90
2023/08/18 00:11:34;;;;;;;17.30;12.30;;;;;;;;;;8106652;29;20165;-90
2023/08/18 00:15:37;;;;;;;17.38;12.55;;;;;;;;;;8106318;29;20139;-90
2023/08/18 00:19:40;;;;;;;13.45;11.45;;;;;;;;;;8106715;29;20064;-90
2023/08/18 00:23:44;;;;;;;16.42;13.05;;;;;;;;;;8106166;29;20127;-90
2023/08/18 00:27:48;;;;;;;18.35;13.35;;;;;;;;;;8106226;29;20139;-90
2023/08/18 00:31:51;;;;;;;23.77;15.57;;;;;;;;;;8105459;29;20132;-91
2023/08/18 00:35:54;;;;;;;20.88;14.60;;;;;;;;;;8105558;29;20669;-90
2023/08/18 00:39:57;;;;;;;18.85;14.55;;;;;;;;;;8105423;29;20084;-90
2023/08/18 00:44:02;;;;;;;18.23;13.75;;;;;;;;;;8105182;29;20484;-91
2023/08/18 00:48:05;;;;;;;19.90;13.57;;;;;;;;;;8105741;29;20071;-90
2023/08/18 00:52:08;;;;;;;19.40;15.07;;;;;;;;;;8105269;29;20414;-90
2023/08/18 00:56:12;;;;;;;18.67;13.63;;;;;;;;;;8105588;29;20131;-91
2023/08/18 01:00:17;;;;;;;20.27;15.35;;;;;;;;;;8105736;29;20056;-91
2023/08/18 01:04:20;;;;;;;20.60;15.73;;;;;;;;;;8102862;29;20071;-90
2023/08/18 01:08:24;;;;;;;22.90;16.50;;;;;;;;;;8103812;29;20132;-90
2023/08/18 01:12:35;;;;;;;21.17;15.82;;;;;;;;;;8105324;29;20136;-90
2023/08/18 01:16:43;;;;;;;22.23;16.42;;;;;;;;;;8105410;29;20496;-90
2023/08/18 01:20:45;;;;;;;22.77;16.10;;;;;;;;;;8101083;29;20109;-91
2023/08/18 01:24:50;;;;;;;24.30;16.45;;;;;;;;;;8096418;29;20497;-91
2023/08/18 01:28:52;;;;;;;23.20;16.35;;;;;;;;;;8105110;29;20052;-90
2023/08/18 01:33:02;;;;;;;22.20;17.05;;;;;;;;;;8105198;29;20063;-90
2023/08/18 01:37:05;;;;;;;26.98;17.73;;;;;;;;;;8103983;29;20143;-90
2023/08/18 01:41:12;;;;;;;27.88;18.40;;;;;;;;;;8104315;29;20053;-89
2023/08/18 01:45:15;;;;;;;26.52;18.05;;;;;;;;;;8103552;29;20061;-90
2023/08/18 01:49:18;;;;;;;25.80;17.98;;;;;;;;;;8108104;29;20056;-90
2023/08/18 01:53:21;;;;;;;27.17;19.05;;;;;;;;;;8110280;29;20425;-90
2023/08/18 01:57:25;;;;;;;29.42;18.52;;;;;;;;;;8110540;29;20048;-90
2023/08/18 02:01:28;;;;;;;28.38;17.85;;;;;;;;;;8110812;29;20672;-90
2023/08/18 02:05:31;;;;;;;22.60;17.27;;;;;;;;;;8110236;29;20057;-90
2023/08/18 02:09:33;;;;;;;26.42;18.45;;;;;;;;;;8109639;29;20425;-90
2023/08/18 02:13:38;;;;;;;24.88;17.50;;;;;;;;;;8110615;29;20060;-90
2023/08/18 02:17:41;;;;;;;26.38;18.75;;;;;;;;;;8109642;29;20131;-89
2023/08/18 02:21:44;;;;;;;26.10;17.75;;;;;;;;;;8109347;29;20056;-90
2023/08/18 02:25:47;;;;;;;25.67;16.58;;;;;;;;;;8109808;29;20053;-89
2023/08/18 02:29:53;;;;;;;24.80;15.23;;;;;;;;;;8109002;29;20049;-89
2023/08/18 02:33:56;;;;;;;19.40;15.48;;;;;;;;;;8092518;29;20098;-89
2023/08/18 02:37:59;;;;;;;18.20;15.40;;;;;;;;;;8108745;29;20075;-89
2023/08/18 02:42:01;;;;;;;25.98;16.35;;;;;;;;;;8108764;29;20060;-90
2023/08/18 02:46:06;;;;;;;20.42;15.80;;;;;;;;;;8108669;29;20390;-88
2023/08/18 02:50:10;;;;;;;26.98;17.05;;;;;;;;;;8108715;29;20059;-89
2023/08/18 02:54:13;;;;;;;23.77;16.90;;;;;;;;;;8108664;29;20084;-89
2023/08/18 02:58:16;;;;;;;29.35;18.55;;;;;;;;;;8105433;29;20059;-89
2023/08/18 03:02:20;;;;;;;30.27;20.10;;;;;;;;;;8104218;29;20068;-90
2023/08/18 03:06:23;;;;;;;26.35;18.90;;;;;;;;;;8108400;29;20079;-89
2023/08/18 03:10:25;;;;;;;47.33;26.80;;;;;;;;;;8108215;29;20417;-89
2023/08/18 03:14:28;;;;;;;36.40;23.77;;;;;;;;;;8108218;29;20123;-89
2023/08/18 03:18:34;;;;;;;30.40;20.77;;;;;;;;;;8107908;29;20507;-90
2023/08/18 03:22:37;;;;;;;29.73;20.95;;;;;;;;;;8107844;29;20155;-90
2023/08/18 03:26:40;;;;;;;41.83;28.13;;;;;;;;;;8107825;29;20529;-89
2023/08/18 03:30:43;;;;;;;35.88;24.90;;;;;;;;;;8107606;29;20056;-90
2023/08/18 03:34:48;;;;;;;30.48;21.10;;;;;;;;;;8106767;29;20060;-90
2023/08/18 03:38:51;;;;;;;34.83;23.00;;;;;;;;;;8107879;29;20135;-90
2023/08/18 03:42:54;;;;;;;31.83;21.77;;;;;;;;;;8106048;29;20514;-90
2023/08/18 03:46:57;;;;;;;32.38;23.00;;;;;;;;;;8101405;29;20072;-90
2023/08/18 03:51:01;;;;;;;38.33;23.45;;;;;;;;;;8102671;29;20135;-91
2023/08/18 03:55:04;;;;;;;35.33;23.73;;;;;;;;;;8104507;29;20151;-90
2023/08/18 03:59:07;;;;;;;31.05;21.58;;;;;;;;;;8096472;29;20136;-90
2023/08/18 04:03:10;;;;;;;33.40;22.95;;;;;;;;;;8106078;29;20076;-89
2023/08/18 04:07:14;;;;;;;32.22;23.20;;;;;;;;;;8106152;29;20501;-89
2023/08/18 04:11:17;;;;;;;33.70;23.70;;;;;;;;;;8104794;29;20506;-90
2023/08/18 04:15:20;;;;;;;33.88;23.20;;;;;;;;;;8106145;29;20616;-90
2023/08/18 04:19:23;;;;;;;30.50;21.23;;;;;;;;;;8106748;29;20139;-89
2023/08/18 04:23:28;;;;;;;31.75;19.25;;;;;;;;;;8106452;29;20080;-90
2023/08/18 04:27:31;;;;;;;24.80;19.17;;;;;;;;;;8103923;29;20056;-90
2023/08/18 04:31:34;;;;;;;32.45;20.85;;;;;;;;;;8077615;29;20379;-90
2023/08/18 04:35:37;;;;;;;26.13;17.75;;;;;;;;;;8101351;29;20131;-88
2023/08/18 04:39:41;;;;;;;23.30;16.58;;;;;;;;;;8086866;29;20511;-90
2023/08/18 04:43:44;;;;;;;21.60;16.60;;;;;;;;;;8094375;29;20083;-91
2023/08/18 04:47:48;;;;;;;25.63;17.02;;;;;;;;;;8103487;29;20057;-90
2023/08/18 04:51:51;;;;;;;22.23;16.25;;;;;;;;;;8105101;29;20091;-91
2023/08/18 04:55:57;;;;;;;18.67;14.40;;;;;;;;;;8105743;29;20044;-91
2023/08/18 05:00:00;;;;;;;20.05;13.88;;;;;;;;;;8104970;29;20060;-90
2023/08/18 05:04:03;;;;;;;19.95;15.70;;;;;;;;;;8105089;29;20049;-91
2023/08/18 05:08:06;;;;;;;19.58;15.52;;;;;;;;;;8101731;29;20091;-90
2023/08/18 05:12:10;;;;;;;18.85;14.73;;;;;;;;;;8106768;29;20565;-90
2023/08/18 05:16:13;;;;;;;18.73;13.05;;;;;;;;;;8098872;29;20063;-90
2023/08/18 05:20:16;;;;;;;18.65;13.32;;;;;;;;;;8104168;29;20493;-90
2023/08/18 05:24:19;;;;;;;17.98;13.52;;;;;;;;;;8110519;29;20064;-90
2023/08/18 05:28:24;;;;;;;16.77;13.07;;;;;;;;;;8111116;29;20707;-89
2023/08/18 05:32:28;;;;;;;18.95;13.55;;;;;;;;;;8106062;29;20059;-90
2023/08/18 05:36:43;;;;;;;16.60;12.05;;;;;;;;;;8097940;29;20057;-89
2023/08/18 05:40:50;;;;;;;13.07;10.25;;;;;;;;;;8100233;29;20168;-90
2023/08/18 05:44:55;;;;;;;15.73;10.70;;;;;;;;;;8108963;29;20767;-90
2023/08/18 05:48:58;;;;;;;13.30;10.30;;;;;;;;;;8110762;29;20049;-89
2023/08/18 05:53:03;;;;;;;14.32;10.20;;;;;;;;;;8107956;29;20458;-89
2023/08/18 05:57:06;;;;;;;16.20;10.57;;;;;;;;;;8085083;29;20132;-85
2023/08/18 06:01:10;;;;;;;12.95;9.93;;;;;;;;;;8104913;29;20529;-85
2023/08/18 06:05:16;;;;;;;13.90;9.77;;;;;;;;;;8094835;29;20052;-90
2023/08/18 06:09:19;;;;;;;12.68;7.97;;;;;;;;;;8096116;29;20056;-90
2023/08/18 06:13:22;;;;;;;12.15;9.23;;;;;;;;;;8103147;29;20188;-90
2023/08/18 06:17:27;;;;;;;9.52;8.00;;;;;;;;;;8105988;29;20053;-87
2023/08/18 06:21:30;;;;;;;10.13;8.05;;;;;;;;;;8108778;29;20048;-88
2023/08/18 06:25:33;;;;;;;11.15;8.65;;;;;;;;;;8108100;29;20458;-88
2023/08/18 06:29:35;;;;;;;12.55;9.07;;;;;;;;;;8106494;29;20474;-89
2023/08/18 06:33:40;;;;;;;11.82;9.15;;;;;;;;;;8109245;29;20095;-88
2023/08/18 06:37:43;;;;;;;12.18;8.93;;;;;;;;;;8108768;29;20140;-88
2023/08/18 06:41:47;;;;;;;12.23;8.48;;;;;;;;;;8108735;29;20103;-89
2023/08/18 06:45:50;;;;;;;11.18;7.80;;;;;;;;;;8105158;29;20533;-88
2023/08/18 06:49:54;;;;;;;9.63;7.95;;;;;;;;;;8087755;29;20048;-89
2023/08/18 06:53:59;;;;;;;11.60;8.15;;;;;;;;;;8095595;29;20079;-89
2023/08/18 06:58:03;;;;;;;9.95;7.55;;;;;;;;;;8088868;29;20164;-89
2023/08/18 07:02:07;;;;;;;13.38;8.50;;;;;;;;;;8100228;29;20139;-86
2023/08/18 07:06:12;;;;;;;12.38;8.10;;;;;;;;;;8082660;29;20061;-88
2023/08/18 07:10:15;;;;;;;8.55;7.50;;;;;;;;;;8091102;29;20053;-88
2023/08/18 07:14:18;;;;;;;10.30;7.20;;;;;;;;;;8096390;29;20461;-88
2023/08/18 07:18:21;;;;;;;9.98;7.78;;;;;;;;;;8098760;29;20438;-88
2023/08/18 07:22:26;;;;;;;9.18;7.38;;;;;;;;;;8099344;29;20058;-88
2023/08/18 07:26:29;;;;;;;9.68;8.00;;;;;;;;;;8098677;29;20076;-88
2023/08/18 07:30:33;;;;;;;10.77;7.68;;;;;;;;;;8103008;29;20729;-88
2023/08/18 07:34:36;;;;;;;9.77;7.10;;;;;;;;;;8104937;29;20442;-89
2023/08/18 07:38:40;;;;;;;9.40;7.57;;;;;;;;;;8107748;29;20060;-88
2023/08/18 07:42:44;;;;;;;10.88;7.43;;;;;;;;;;8088832;29;20052;-87
2023/08/18 07:46:46;;;;;;;11.77;7.13;;;;;;;;;;8106612;29;20060;-88
2023/08/18 07:50:53;;;;;;;9.68;6.93;;;;;;;;;;8104834;29;20111;-88
2023/08/18 07:54:58;;;;;;;9.85;6.95;;;;;;;;;;8096152;29;20056;-88
2023/08/18 07:59:01;;;;;;;9.68;6.90;;;;;;;;;;8094907;29;20056;-87
2023/08/18 08:03:04;;;;;;;9.88;7.30;;;;;;;;;;8105871;29;20117;-90
2023/08/18 08:07:08;;;;;;;11.48;7.20;;;;;;;;;;8106068;29;20052;-88
2023/08/18 08:11:12;;;;;;;8.93;6.97;;;;;;;;;;8106044;29;20063;-89
2023/08/18 08:15:16;;;;;;;12.05;7.20;;;;;;;;;;8104048;29;20064;-89
2023/08/18 08:19:18;;;;;;;8.68;7.00;;;;;;;;;;8097945;29;20060;-85
2023/08/18 08:23:21;;;;;;;11.52;6.78;;;;;;;;;;8104480;29;20064;-89
2023/08/18 08:27:26;;;;;;;9.88;7.07;;;;;;;;;;8094209;29;20061;-89
2023/08/18 08:31:28;;;;;;;10.38;6.95;;;;;;;;;;8101180;29;20053;-89
2023/08/18 08:35:31;;;;;;;7.72;6.65;;;;;;;;;;8099781;29;20087;-89
2023/08/18 08:39:34;;;;;;;11.80;6.55;;;;;;;;;;8094235;29;20084;-86
2023/08/18 08:43:39;;;;;;;15.15;7.43;;;;;;;;;;8103576;29;20131;-88
2023/08/18 08:47:43;;;;;;;12.40;7.55;;;;;;;;;;8097706;29;20060;-88
2023/08/18 08:51:48;;;;;;;7.78;6.95;;;;;;;;;;8090369;29;20067;-87
2023/08/18 08:55:53;;;;;;;10.18;7.15;;;;;;;;;;8100432;29;20070;-87
2023/08/18 08:59:58;;;;;;;11.20;7.22;;;;;;;;;;8098406;29;20057;-85
2023/08/18 09:04:02;;;;;;;9.00;6.60;;;;;;;;;;8097110;29;20064;-90
2023/08/18 09:08:06;;;;;;;10.30;7.30;;;;;;;;;;8097710;29;20425;-87
2023/08/18 09:12:10;;;;;;;9.90;7.00;;;;;;;;;;8099265;29;20387;-87
2023/08/18 09:16:14;;;;;;;10.68;6.47;;;;;;;;;;8092433;29;20084;-87
2023/08/18 09:20:18;;;;;;;6.93;6.15;;;;;;;;;;8101180;29;20484;-88
2023/08/18 09:24:21;;;;;;;9.43;6.60;;;;;;;;;;8097434;29;20113;-85
2023/08/18 09:28:24;;;;;;;13.50;6.90;;;;;;;;;;8090693;29;20068;-88
2023/08/18 09:32:29;;;;;;;11.10;7.25;;;;;;;;;;8095993;29;20104;-87
2023/08/18 09:36:32;;;;;;;8.85;6.38;;;;;;;;;;8102690;29;20055;-88
2023/08/18 09:40:35;;;;;;;10.13;6.20;;;;;;;;;;8104256;29;20065;-88
2023/08/18 09:44:39;;;;;;;10.32;5.80;;;;;;;;;;8087149;29;20060;-84
2023/08/18 09:48:46;;;;;;;10.20;6.35;;;;;;;;;;8100029;29;20048;-88
2023/08/18 09:52:53;;;;;;;11.07;6.32;;;;;;;;;;8103322;29;20136;-88
2023/08/18 09:57:01;;;;;;;10.27;6.45;;;;;;;;;;8104298;29;20772;-88
2023/08/18 10:01:05;;;;;;;10.90;6.75;;;;;;;;;;8093379;29;20048;-88
2023/08/18 10:05:15;;;;;;;9.00;6.78;;;;;;;;;;8102047;29;20470;-88
2023/08/18 10:09:19;;;;;;;9.15;6.50;;;;;;;;;;8089380;29;20089;-87
2023/08/18 10:13:22;;;;;;;15.60;10.48;;;;;;;;;;8100836;29;20403;-87
2023/08/18 10:17:25;;;;;;;32.00;17.23;;;;;;;;;;8105144;29;20053;-87
2023/08/18 10:21:30;;;;;;;14.23;8.50;;;;;;;;;;8107285;29;20131;-89
2023/08/18 10:25:49;;;;;;;14.13;6.93;;;;;;;;;;8095434;29;20486;-89
2023/08/18 10:29:58;;;;;;;8.40;6.38;;;;;;;;;;8086813;29;20615;-88
2023/08/18 10:34:03;;;;;;;12.38;7.95;;;;;;;;;;8097667;29;20060;-90
2023/08/18 10:38:11;;;;;;;12.90;7.15;;;;;;;;;;8099514;29;20060;-89
2023/08/18 10:42:24;;;;;;;8.23;6.80;;;;;;;;;;8095217;29;20084;-89
2023/08/18 10:46:34;;;;;;;11.73;7.60;;;;;;;;;;8108544;29;20550;-89
2023/08/18 10:50:50;;;;;;;54.63;29.33;;;;;;;;;;8108476;29;20057;-89
2023/08/18 10:54:54;;;;;;;23.63;14.60;;;;;;;;;;8094557;29;20110;-89
2023/08/18 10:59:01;;;;;;;9.85;6.25;;;;;;;;;;8091971;29;20098;-89
2023/08/18 11:04:08;;;;;;;17.75;8.68;;;;;;;;;;8104796;29;20067;-88
2023/08/18 11:08:46;;;;;;;23.85;11.80;;;;;;;;;;7926324;29;20065;-88
2023/08/18 11:12:57;;;;;;;17.08;8.98;;;;;;;;;;7982993;29;20229;-88
2023/08/18 11:16:59;;;;;;;16.88;8.20;;;;;;;;;;8009037;29;20069;-89
2023/08/18 11:21:03;;;;;;;10.75;6.32;;;;;;;;;;8009166;29;20078;-88
2023/08/18 11:25:07;;;;;;;13.93;8.38;;;;;;;;;;8010807;29;20057;-88
2023/08/18 11:29:11;;;;;;;11.15;6.95;;;;;;;;;;8009424;29;20065;-84
2023/08/18 11:33:15;;;;;;;17.13;7.97;;;;;;;;;;8010100;29;20058;-85
2023/08/18 11:37:21;;;;;;;18.83;10.43;;;;;;;;;;8006120;29;20087;-86
2023/08/18 11:41:24;;;;;;;10.65;5.80;;;;;;;;;;8063707;29;20061;-88
2023/08/18 11:45:31;;;;;;;29.58;12.30;;;;;;;;;;8105805;29;20553;-88
2023/08/18 11:49:37;;;;;;;22.55;10.38;;;;;;;;;;8078990;29;20048;-87
2023/08/18 11:53:41;;;;;;;21.95;9.80;;;;;;;;;;8102370;29;20060;-88
2023/08/18 11:57:45;;;;;;;24.42;11.32;;;;;;;;;;8097456;29;20148;-88
2023/08/18 12:01:55;;;;;;;13.80;7.70;;;;;;;;;;8105772;29;20057;-89
2023/08/18 12:05:59;;;;;;;20.92;10.38;;;;;;;;;;8096821;29;20056;-88
2023/08/18 12:10:03;;;;;;;9.73;6.70;;;;;;;;;;8106607;29;20056;-89
2023/08/18 12:14:06;;;;;;;14.13;8.10;;;;;;;;;;8102125;29;20064;-86
2023/08/18 12:18:10;;;;;;;14.57;9.38;;;;;;;;;;8105105;29;20136;-86
2023/08/18 12:22:13;;;;;;;9.43;6.97;;;;;;;;;;8104884;29;20143;-86
2023/08/18 12:26:17;;;;;;;11.38;7.32;;;;;;;;;;8105265;29;20135;-88
2023/08/18 12:30:21;;;;;;;11.63;7.75;;;;;;;;;;8101736;29;20155;-88
2023/08/18 12:34:26;;;;;;;15.63;7.65;;;;;;;;;;8097562;29;20053;-88
2023/08/18 12:38:29;;;;;;;13.55;8.02;;;;;;;;;;8093745;29;20056;-87
2023/08/18 12:42:32;;;;;;;11.25;7.30;;;;;;;;;;8099869;29;20151;-86
2023/08/18 12:46:34;;;;;;;10.20;7.20;;;;;;;;;;8104006;29;20056;-87
2023/08/18 12:50:39;;;;;;;9.65;6.78;;;;;;;;;;8085895;29;20067;-86
2023/08/18 12:54:42;;;;;;;11.18;6.40;;;;;;;;;;8094502;29;20091;-87
2023/08/18 12:58:45;;;;;;;6.78;5.90;;;;;;;;;;8103663;29;20502;-86
2023/08/18 13:02:48;;;;;;;9.73;6.20;;;;;;;;;;8101878;29;20147;-87
2023/08/18 13:06:53;;;;;;;8.52;6.70;;;;;;;;;;8087867;29;20056;-88
2023/08/18 13:10:56;;;;;;;12.80;7.45;;;;;;;;;;8088399;29;20128;-88
2023/08/18 13:15:03;;;;;;;13.30;8.52;;;;;;;;;;8086745;29;20131;-89
2023/08/18 13:19:06;;;;;;;11.55;6.80;;;;;;;;;;8098949;29;20076;-87
2023/08/18 13:23:11;;;;;;;11.20;8.32;;;;;;;;;;8087950;29;20072;-88
2023/08/18 13:27:14;;;;;;;11.93;6.60;;;;;;;;;;8093293;29;20088;-86
2023/08/18 13:31:17;;;;;;;12.13;6.70;;;;;;;;;;8094356;29;20072;-89
2023/08/18 13:35:21;;;;;;;9.60;6.45;;;;;;;;;;8098737;29;20142;-89
2023/08/18 13:39:26;;;;;;;29.63;9.43;;;;;;;;;;8095389;29;20183;-88
2023/08/18 13:43:29;;;;;;;11.75;8.40;;;;;;;;;;8073542;29;20056;-88
2023/08/18 13:47:32;;;;;;;13.98;7.30;;;;;;;;;;8101724;29;20127;-87
2023/08/18 13:51:36;;;;;;;14.80;8.90;;;;;;;;;;8104072;29;20057;-89
2023/08/18 13:55:50;;;;;;;15.32;9.05;;;;;;;;;;8090704;29;20068;-88
2023/08/18 14:00:00;;;;;;;14.10;8.57;;;;;;;;;;8094184;29;20079;-89
2023/08/18 14:04:05;;;;;;;13.55;8.77;;;;;;;;;;8097083;29;20065;-88
2023/08/18 14:08:09;;;;;;;9.07;6.97;;;;;;;;;;8095404;29;20053;-89
2023/08/18 14:12:14;;;;;;;9.38;6.70;;;;;;;;;;8091523;29;20056;-89
2023/08/18 14:16:18;;;;;;;8.55;6.43;;;;;;;;;;8088525;29;20521;-89
2023/08/18 14:20:22;;;;;;;9.95;6.45;;;;;;;;;;8084592;29;20067;-87
2023/08/18 14:24:25;;;;;;;10.27;6.88;;;;;;;;;;8081626;29;20077;-88
2023/08/18 14:28:28;;;;;;;9.23;6.15;;;;;;;;;;8073642;29;20053;-87
2023/08/18 14:32:33;;;;;;;7.43;6.00;;;;;;;;;;8097390;29;20049;-89
2023/08/18 14:36:37;;;;;;;10.90;6.55;;;;;;;;;;8109437;29;20060;-88
2023/08/18 14:40:41;;;;;;;9.65;6.25;;;;;;;;;;8092754;29;20535;-89
2023/08/18 14:44:46;;;;;;;10.70;6.80;;;;;;;;;;8098197;29;20105;-88
2023/08/18 14:48:51;;;;;;;11.60;7.10;;;;;;;;;;8086489;29;20075;-89
2023/08/18 14:52:54;;;;;;;10.05;6.90;;;;;;;;;;8104031;29;20606;-88
2023/08/18 14:56:58;;;;;;;13.40;7.57;;;;;;;;;;8107604;29;20053;-88
2023/08/18 15:01:03;;;;;;;9.15;7.22;;;;;;;;;;8091539;29;20057;-88
2023/08/18 15:05:08;;;;;;;9.18;7.20;;;;;;;;;;8093609;29;20057;-88
2023/08/18 15:09:11;;;;;;;8.95;6.80;;;;;;;;;;8099889;29;20060;-87
2023/08/18 15:13:15;;;;;;;9.45;7.07;;;;;;;;;;8096971;29;20128;-88
2023/08/18 15:17:26;;;;;;;9.88;6.70;;;;;;;;;;8109931;29;20056;-88
2023/08/18 15:21:28;;;;;;;;;;;;;;;;;;8105187;29;20482;-88
2023/08/18 15:25:31;;;;;;;9.02;6.60;;;;;;;;;;8107571;29;20002;-86
2023/08/18 15:29:35;;;;;;;11.15;6.60;;;;;;;;;;8107484;29;20061;-89
2023/08/18 15:33:41;;;;;;;8.65;6.65;;;;;;;;;;8092922;29;20061;-89
2023/08/18 15:37:43;;;;;;;9.60;6.78;;;;;;;;;;8085501;29;20086;-88
2023/08/18 15:41:48;;;;;;;10.20;6.88;;;;;;;;;;8081587;29;20070;-89
2023/08/18 15:45:53;;;;;;;10.30;6.28;;;;;;;;;;8089307;29;20060;-88
2023/08/18 15:49:57;;;;;;;9.48;6.55;;;;;;;;;;8085670;29;20554;-90
2023/08/18 15:54:02;;;;;;;11.35;7.60;;;;;;;;;;8086260;29;20081;-90
2023/08/18 15:58:05;;;;;;;9.60;7.28;;;;;;;;;;8083174;29;20091;-89
2023/08/18 16:02:08;;;;;;;13.73;9.75;;;;;;;;;;8089092;29;20052;-88
2023/08/18 16:06:12;;;;;;;23.38;18.13;;;;;;;;;;8081748;29;20135;-88
2023/08/18 16:10:15;;;;;;;12.02;8.80;;;;;;;;;;8082940;29;20077;-89
2023/08/18 16:14:21;;;;;;;34.35;21.48;;;;;;;;;;8085754;29;20061;-87
2023/08/18 16:18:24;;;;;;;21.38;9.20;;;;;;;;;;8082452;29;20057;-90
2023/08/18 16:22:29;;;;;;;142.00;43.63;;;;;;;;;;8084486;29;20056;-90
2023/08/18 16:26:33;;;;;;;29.92;15.00;;;;;;;;;;8106432;29;20147;-89
2023/08/18 16:30:39;;;;;;;28.15;14.43;;;;;;;;;;8103959;29;20064;-89
2023/08/18 16:34:43;;;;;;;20.60;11.60;;;;;;;;;;8094492;29;20048;-89
2023/08/18 16:38:49;;;;;;;25.73;14.85;;;;;;;;;;8103049;29;20100;-89
2023/08/18 16:42:56;;;;;;;52.88;26.02;;;;;;;;;;8092499;29;20067;-88
2023/08/18 16:47:00;;;;;;;44.92;21.58;;;;;;;;;;8097017;29;20080;-88
2023/08/18 16:51:04;;;;;;;14.40;10.13;;;;;;;;;;8102365;29;20061;-87
2023/08/18 16:55:10;;;;;;;17.88;10.95;;;;;;;;;;8102130;29;20065;-91
2023/08/18 16:59:13;;;;;;;13.95;9.20;;;;;;;;;;8099620;29;20132;-88
2023/08/18 17:03:18;;;;;;;14.98;10.90;;;;;;;;;;8105746;29;20139;-89
2023/08/18 17:07:22;;;;;;;10.75;8.98;;;;;;;;;;8103514;29;20087;-88
2023/08/18 17:11:26;;;;;;;11.07;8.50;;;;;;;;;;8082418;29;20322;-88
2023/08/18 17:15:29;;;;;;;18.08;11.98;;;;;;;;;;8086021;29;20140;-88
2023/08/18 17:19:32;;;;;;;15.77;10.50;;;;;;;;;;8087702;29;20521;-88
2023/08/18 17:23:35;;;;;;;12.88;10.27;;;;;;;;;;8089850;29;20509;-90
2023/08/18 17:27:41;;;;;;;11.45;9.48;;;;;;;;;;8100900;23;20139;-90
2023/08/18 17:31:51;;;;;;;10.18;8.90;;;;;;;;;;8092635;29;20057;-90
2023/08/18 17:35:59;;;;;;;12.80;10.90;;;;;;;;;;8089687;29;20053;-89
2023/08/18 17:44:52;;;;;;;15.18;11.32;;;;;;;;;;8052016;29;20140;-89
2023/08/18 17:48:55;;;;;;;19.70;16.50;;;;;;;;;;8088637;29;20155;-88
2023/08/18 17:52:59;;;;;;;14.88;11.55;;;;;;;;;;8088179;29;20490;-89
2023/08/18 17:57:03;;;;;;;15.88;12.00;;;;;;;;;;8088003;29;20048;-89
2023/08/18 18:01:09;;;;;;;13.85;11.35;;;;;;;;;;8089355;29;20075;-90
2023/08/18 18:05:14;;;;;;;15.15;12.77;;;;;;;;;;8101172;29;20065;-90
2023/08/18 18:09:19;;;;;;;24.10;13.07;;;;;;;;;;8105390;29;20502;-88
2023/08/18 18:13:23;;;;;;;15.70;13.43;;;;;;;;;;8106147;29;20048;-89
2023/08/18 18:17:29;;;;;;;23.55;14.40;;;;;;;;;;8100224;29;20056;-87
2023/08/18 18:21:34;;;;;;;18.65;14.07;;;;;;;;;;8105560;29;20052;-88
2023/08/18 18:25:42;;;;;;;24.67;16.83;;;;;;;;;;8109707;29;20105;-89
2023/08/18 18:29:45;;;;;;;20.02;15.65;;;;;;;;;;8108653;29;20048;-88
2023/08/18 18:33:52;;;;;;;24.92;15.52;;;;;;;;;;8093919;29;20067;-89
2023/08/18 18:37:56;;;;;;;19.85;15.50;;;;;;;;;;8098904;29;20065;-89
2023/08/18 18:41:59;;;;;;;17.85;14.90;;;;;;;;;;8106362;29;20466;-88
2023/08/18 18:46:07;;;;;;;19.80;15.32;;;;;;;;;;8100785;29;20127;-87
2023/08/18 18:50:14;;;;;;;19.10;15.82;;;;;;;;;;8095512;29;20099;-86
2023/08/18 18:54:18;;;;;;;22.60;15.55;;;;;;;;;;8076649;29;20057;-88
2023/08/18 18:58:23;;;;;;;17.77;14.93;;;;;;;;;;8098765;29;20785;-87
2023/08/18 19:02:31;;;;;;;21.40;16.50;;;;;;;;;;8107361;29;20053;-90
2023/08/18 19:06:42;;;;;;;19.17;16.13;;;;;;;;;;8106952;29;20049;-90
2023/08/18 19:10:47;;;;;;;21.38;16.02;;;;;;;;;;8108168;29;20056;-90
2023/08/18 19:14:52;;;;;;;21.17;14.93;;;;;;;;;;8094485;29;20053;-90
2023/08/18 19:18:57;;;;;;;21.95;15.90;;;;;;;;;;8099760;29;20053;-86
2023/08/18 19:23:03;;;;;;;17.00;14.57;;;;;;;;;;8100214;29;20405;-88
2023/08/18 19:27:07;;;;;;;20.33;15.52;;;;;;;;;;8106768;29;20064;-86
2023/08/18 19:31:11;;;;;;;22.83;16.67;;;;;;;;;;8084156;29;20139;-85
2023/08/18 19:35:16;;;;;;;19.83;14.90;;;;;;;;;;8099912;29;20057;-90
2023/08/18 19:39:26;;;;;;;17.83;15.07;;;;;;;;;;8087343;29;20534;-87
2023/08/18 19:43:32;;;;;;;17.90;14.10;;;;;;;;;;8085817;29;20101;-87
2023/08/18 19:47:36;;;;;;;19.38;14.50;;;;;;;;;;8078661;29;20059;-90
2023/08/18 19:51:39;;;;;;;17.30;13.68;;;;;;;;;;8090501;29;20131;-89
2023/08/18 19:55:47;;;;;;;18.98;15.35;;;;;;;;;;8095198;29;20442;-90
2023/08/18 19:59:52;;;;;;;21.33;15.27;;;;;;;;;;8090555;29;20059;-90
2023/08/18 20:03:55;;;;;;;22.15;15.60;;;;;;;;;;8102654;29;20060;-90
2023/08/18 20:08:00;;;;;;;21.48;14.82;;;;;;;;;;8098465;29;20056;-90
2023/08/18 20:12:06;;;;;;;17.08;14.02;;;;;;;;;;8106204;29;20139;-89
2023/08/18 20:16:11;;;;;;;18.50;14.70;;;;;;;;;;8106750;29;20080;-89
2023/08/18 20:20:15;;;;;;;18.25;15.45;;;;;;;;;;8097266;29;20059;-92
2023/08/18 20:24:19;;;;;;;22.33;16.73;;;;;;;;;;8082810;29;20525;-91
2023/08/18 20:28:25;;;;;;;21.55;15.02;;;;;;;;;;8105901;29;20072;-89
2023/08/18 20:32:29;;;;;;;18.38;14.20;;;;;;;;;;8098327;29;20148;-90
2023/08/18 20:36:34;;;;;;;20.55;15.60;;;;;;;;;;8105179;29;20486;-90
2023/08/18 20:40:41;;;;;;;24.65;17.05;;;;;;;;;;8106001;29;20087;-90
2023/08/18 20:44:46;;;;;;;19.83;15.70;;;;;;;;;;8105967;29;20067;-90
2023/08/18 20:48:49;;;;;;;22.55;16.02;;;;;;;;;;8101265;29;20482;-90
2023/08/18 20:52:54;;;;;;;20.70;15.98;;;;;;;;;;8098307;29;20048;-89
2023/08/18 20:56:59;;;;;;;22.63;16.23;;;;;;;;;;8104856;29;20056;-89
2023/08/18 21:01:03;;;;;;;22.77;16.30;;;;;;;;;;8105098;29;20079;-90
2023/08/18 21:05:08;;;;;;;23.17;17.80;;;;;;;;;;8105277;29;20053;-90
2023/08/18 21:09:14;;;;;;;23.77;17.00;;;;;;;;;;8086170;29;20056;-90
2023/08/18 21:13:17;;;;;;;26.13;17.30;;;;;;;;;;8104955;29;20116;-89
2023/08/18 21:17:21;;;;;;;21.75;17.27;;;;;;;;;;8103996;29;20465;-89
2023/08/18 21:21:24;;;;;;;23.65;16.73;;;;;;;;;;8104774;29;20088;-89
2023/08/18 21:25:27;;;;;;;23.00;16.38;;;;;;;;;;8104905;29;20063;-89
2023/08/18 21:29:30;;;;;;;25.83;18.48;;;;;;;;;;8104922;29;20139;-90
2023/08/18 21:33:34;;;;;;;27.98;19.05;;;;;;;;;;8104455;29;20131;-89
2023/08/18 21:37:37;;;;;;;25.05;17.73;;;;;;;;;;8104912;29;20458;-90
2023/08/18 21:41:40;;;;;;;24.42;17.13;;;;;;;;;;8103790;29;20493;-89
2023/08/18 21:45:43;;;;;;;23.08;16.67;;;;;;;;;;8098980;29;20072;-90
2023/08/18 21:49:49;;;;;;;20.70;15.57;;;;;;;;;;8104107;29;20060;-90
2023/08/18 21:53:52;;;;;;;26.55;17.65;;;;;;;;;;8104887;29;20101;-90
2023/08/18 21:57:55;;;;;;;27.48;18.95;;;;;;;;;;8095502;29;20052;-91
2023/08/18 22:01:58;;;;;;;28.75;18.13;;;;;;;;;;8101682;29;20801;-91
2023/08/18 22:06:03;;;;;;;27.67;18.45;;;;;;;;;;8105882;29;20131;-89
2023/08/18 22:10:06;;;;;;;26.27;18.05;;;;;;;;;;8109234;29;20063;-90
2023/08/18 22:14:09;;;;;;;27.80;18.00;;;;;;;;;;8106898;29;20466;-90
2023/08/18 22:18:12;;;;;;;24.52;17.63;;;;;;;;;;8110026;29;20144;-90
2023/08/18 22:22:16;;;;;;;28.30;18.70;;;;;;;;;;8107874;29;20511;-90
2023/08/18 22:26:19;;;;;;;25.95;18.35;;;;;;;;;;8106566;29;20059;-90
2023/08/18 22:30:22;;;;;;;30.80;19.42;;;;;;;;;;8109560;29;20200;-88
2023/08/18 22:34:25;;;;;;;25.95;18.73;;;;;;;;;;8109926;29;20136;-90
2023/08/18 22:38:29;;;;;;;27.83;20.63;;;;;;;;;;8109384;29;20057;-90
2023/08/18 22:42:32;;;;;;;38.78;19.23;;;;;;;;;;8108937;29;20115;-91
2023/08/18 22:46:35;;;;;;;35.70;20.35;;;;;;;;;;8108786;29;20064;-89
2023/08/18 22:50:38;;;;;;;30.45;19.17;;;;;;;;;;8107511;29;20057;-90
2023/08/18 22:54:44;;;;;;;33.05;20.60;;;;;;;;;;8105403;29;20148;-90
2023/08/18 22:58:47;;;;;;;39.17;21.50;;;;;;;;;;8108531;29;20084;-88
2023/08/18 23:02:50;;;;;;;33.75;20.38;;;;;;;;;;8108410;29;20084;-89
2023/08/18 23:06:53;;;;;;;32.13;20.63;;;;;;;;;;8108690;29;20060;-89
2023/08/18 23:11:01;;;;;;;30.42;19.92;;;;;;;;;;8091693;29;20493;-89
2023/08/18 23:15:05;;;;;;;27.83;18.90;;;;;;;;;;8107889;29;20059;-88
2023/08/18 23:19:08;;;;;;;34.53;20.75;;;;;;;;;;8091418;29;20060;-89
2023/08/18 23:23:11;;;;;;;35.00;21.17;;;;;;;;;;8107685;29;20143;-90
2023/08/18 23:27:15;;;;;;;36.72;20.45;;;;;;;;;;8102513;29;20143;-90
2023/08/18 23:31:18;;;;;;;40.42;21.38;;;;;;;;;;8104253;29;20131;-90
2023/08/18 23:35:22;;;;;;;43.83;21.33;;;;;;;;;;8103486;29;20064;-88
2023/08/18 23:39:25;;;;;;;42.47;21.88;;;;;;;;;;8107495;29;20084;-90
2023/08/18 23:43:31;;;;;;;34.80;20.00;;;;;;;;;;8107243;29;20135;-89
2023/08/18 23:47:33;;;;;;;31.40;19.60;;;;;;;;;;8106586;29;20140;-89
2023/08/18 23:51:36;;;;;;;34.35;20.02;;;;;;;;;;8107187;29;20052;-88
2023/08/18 23:55:39;;;;;;;33.42;19.63;;;;;;;;;;8106554;29;20064;-88
2023/08/18 23:59:44;;;;;;;39.42;21.15;;;;;;;;;;8101779;29;20057;-88
